createdAt,value
2019-02-20T00:00:46.526Z,98.80
2019-02-20T00:05:43.394Z,98.70
2019-02-20T00:10:39.241Z,98.90
2019-02-20T00:15:34.936Z,98.60
2019-02-20T00:20:31.633Z,98.90
2019-02-20T00:25:27.426Z,99.20
2019-02-20T00:30:23.097Z,99.80
2019-02-20T00:35:18.884Z,99.90
2019-02-20T00:40:14.675Z,99.90
2019-02-20T00:45:36.395Z,99.90
2019-02-20T00:50:33.034Z,99.90
2019-02-20T00:55:28.719Z,99.90
2019-02-20T01:00:24.468Z,99.90
2019-02-20T01:05:20.314Z,99.90
2019-02-20T01:10:16.032Z,99.90
2019-02-20T01:15:11.936Z,99.90
2019-02-20T01:20:08.123Z,99.90
2019-02-20T01:25:03.899Z,99.90
2019-02-20T01:29:59.579Z,99.90
2019-02-20T01:34:55.378Z,99.90
2019-02-20T01:39:51.149Z,99.90
2019-02-20T01:44:46.992Z,99.90
2019-02-20T01:49:42.815Z,99.90
2019-02-20T01:54:38.596Z,99.90
2019-02-20T01:59:37.649Z,99.90
2019-02-20T02:04:33.774Z,99.90
2019-02-20T02:09:29.554Z,99.90
2019-02-20T02:14:27.599Z,99.90
2019-02-20T02:19:24.560Z,99.90
2019-02-20T02:24:20.252Z,99.90
2019-02-20T02:29:18.902Z,99.90
2019-02-20T02:34:14.697Z,99.90
2019-02-20T02:39:10.507Z,99.90
2019-02-20T02:44:06.372Z,99.90
2019-02-20T02:49:02.228Z,99.90
2019-02-20T02:53:58.221Z,99.90
2019-02-20T02:58:54.017Z,99.90
2019-02-20T03:03:49.898Z,99.90
2019-02-20T03:08:45.771Z,99.90
2019-02-20T03:13:41.492Z,99.90
2019-02-20T03:18:38.679Z,99.90
2019-02-20T03:23:40.166Z,99.90
2019-02-20T03:28:31.881Z,99.90
2019-02-20T03:33:27.725Z,99.90
2019-02-20T03:38:30.342Z,99.90
2019-02-20T03:43:21.045Z,99.90
2019-02-20T03:48:16.773Z,99.90
2019-02-20T03:53:12.550Z,99.90
2019-02-20T03:58:08.273Z,99.90
2019-02-20T04:03:04.004Z,99.90
2019-02-20T04:07:59.793Z,99.90
2019-02-20T04:12:55.548Z,99.90
2019-02-20T04:17:51.298Z,99.90
2019-02-20T04:22:47.048Z,99.90
2019-02-20T04:27:42.825Z,99.90
2019-02-20T04:32:38.494Z,99.90
2019-02-20T04:37:34.247Z,99.90
2019-02-20T04:42:29.944Z,99.90
2019-02-20T04:47:25.707Z,99.90
2019-02-20T04:52:21.401Z,99.90
2019-02-20T04:57:17.116Z,99.90
2019-02-20T05:02:12.855Z,99.90
2019-02-20T05:07:14.024Z,99.90
2019-02-20T05:12:09.742Z,99.90
2019-02-20T05:17:05.579Z,99.90
2019-02-20T05:22:01.747Z,99.90
2019-02-20T05:26:58.513Z,99.90
2019-02-20T05:31:56.119Z,99.90
2019-02-20T05:36:51.901Z,99.90
2019-02-20T05:41:47.676Z,99.90
2019-02-20T05:46:43.475Z,99.90
2019-02-20T05:51:39.357Z,99.90
2019-02-20T05:56:35.112Z,99.90
2019-02-20T06:01:30.935Z,99.90
2019-02-20T06:06:26.748Z,99.90
2019-02-20T06:11:22.514Z,99.90
2019-02-20T06:16:18.255Z,99.90
2019-02-20T06:21:16.242Z,99.90
2019-02-20T06:26:11.610Z,99.90
2019-02-20T06:31:07.429Z,99.90
2019-02-20T06:36:03.300Z,99.90
2019-02-20T06:40:59.050Z,99.90
2019-02-20T06:45:54.750Z,99.90
2019-02-20T06:50:50.436Z,99.90
2019-02-20T06:55:46.449Z,99.90
2019-02-20T07:00:42.132Z,99.90
2019-02-20T07:05:39.983Z,99.90
2019-02-20T07:11:34.891Z,99.90
2019-02-20T07:17:01.062Z,99.90
2019-02-20T07:22:17.983Z,99.90
2019-02-20T07:27:55.598Z,99.90
2019-02-20T07:32:51.676Z,99.90
2019-02-20T07:37:47.435Z,99.90
2019-02-20T07:42:43.203Z,99.90
2019-02-20T07:47:38.901Z,99.90
2019-02-20T07:52:34.704Z,99.90
2019-02-20T07:57:30.484Z,99.90
2019-02-20T08:02:26.156Z,99.90
2019-02-20T08:07:22.053Z,99.90
2019-02-20T08:12:18.716Z,99.90
2019-02-20T08:17:14.554Z,99.90
2019-02-20T08:22:10.429Z,99.90
2019-02-20T08:27:06.326Z,99.40
2019-02-20T08:32:04.394Z,98.80
2019-02-20T08:37:00.109Z,98.60
2019-02-20T08:41:57.194Z,97.80
2019-02-20T08:46:53.024Z,97.50
2019-02-20T08:51:51.590Z,95.50
2019-02-20T08:56:47.672Z,95.30
2019-02-20T09:01:43.438Z,95.30
2019-02-20T09:06:39.386Z,95.50
2019-02-20T09:11:35.119Z,94.90
2019-02-20T09:16:30.854Z,94.70
2019-02-20T09:21:26.584Z,94.40
2019-02-20T09:26:22.388Z,94.00
2019-02-20T09:31:18.211Z,92.90
2019-02-20T09:36:17.498Z,92.00
2019-02-20T09:41:13.325Z,91.30
2019-02-20T09:46:09.037Z,90.10
2019-02-20T09:51:04.800Z,87.30
2019-02-20T09:56:00.514Z,84.40
2019-02-20T10:00:56.248Z,80.70
2019-02-20T10:05:52.171Z,79.60
2019-02-20T10:10:47.904Z,78.10
2019-02-20T10:15:43.662Z,75.60
2019-02-20T10:20:41.129Z,74.00
2019-02-20T10:25:37.037Z,71.60
2019-02-20T10:30:32.824Z,70.00
2019-02-20T10:35:28.609Z,65.50
2019-02-20T10:40:25.617Z,65.90
2019-02-20T10:45:21.459Z,64.00
2019-02-20T10:50:17.223Z,63.90
2019-02-20T10:55:15.440Z,64.50
2019-02-20T11:00:24.271Z,63.20
2019-02-20T11:05:19.069Z,63.10
2019-02-20T11:10:14.891Z,59.50
2019-02-20T11:15:10.737Z,59.40
2019-02-20T11:20:07.195Z,60.10
2019-02-20T11:25:02.977Z,60.50
2019-02-20T11:29:58.687Z,58.20
2019-02-20T11:34:54.578Z,54.50
2019-02-20T11:39:50.429Z,53.70
2019-02-20T11:44:46.640Z,51.90
2019-02-20T11:49:42.453Z,49.60
2019-02-20T11:54:38.183Z,49.30
2019-02-20T11:59:33.948Z,49.50
2019-02-20T12:04:29.675Z,47.80
2019-02-20T12:09:25.363Z,47.90
2019-02-20T12:14:24.384Z,46.70
2019-02-20T12:19:19.789Z,45.50
2019-02-20T12:24:15.495Z,45.40
2019-02-20T12:29:11.527Z,46.40
2019-02-20T12:34:07.301Z,47.20
2019-02-20T12:39:03.185Z,47.70
2019-02-20T12:44:00.467Z,48.00
2019-02-20T12:48:56.444Z,49.30
2019-02-20T12:53:52.264Z,46.40
2019-02-20T12:58:48.193Z,45.20
2019-02-20T13:03:43.983Z,44.80
2019-02-20T13:08:39.990Z,44.00
2019-02-20T13:13:35.900Z,43.10
2019-02-20T13:18:31.648Z,42.60
2019-02-20T13:23:27.372Z,42.00
2019-02-20T13:28:23.297Z,41.80
2019-02-20T13:33:19.413Z,41.50
2019-02-20T13:38:16.397Z,41.70
2019-02-20T13:43:12.299Z,41.00
2019-02-20T13:48:09.710Z,40.30
2019-02-20T13:53:08.413Z,40.10
2019-02-20T13:58:04.426Z,39.80
2019-02-20T14:03:01.126Z,39.60
2019-02-20T14:07:56.840Z,39.00
2019-02-20T14:12:52.564Z,38.70
2019-02-20T14:17:49.367Z,38.70
2019-02-20T14:22:47.076Z,39.40
2019-02-20T14:27:42.552Z,40.20
2019-02-20T14:32:38.262Z,40.20
2019-02-20T14:37:34.081Z,40.80
2019-02-20T14:42:29.805Z,41.40
2019-02-20T14:47:25.605Z,40.80
2019-02-20T14:52:21.477Z,41.00
2019-02-20T14:57:19.592Z,43.10
2019-02-20T15:02:16.544Z,45.20
2019-02-20T15:07:12.152Z,45.10
2019-02-20T15:12:08.349Z,46.80
2019-02-20T15:17:04.222Z,47.80
2019-02-20T15:21:59.893Z,47.90
2019-02-20T15:26:55.847Z,48.40
2019-02-20T15:31:51.667Z,49.60
2019-02-20T15:36:47.451Z,50.40
2019-02-20T15:41:43.208Z,51.80
2019-02-20T15:46:38.919Z,52.10
2019-02-20T15:51:34.907Z,52.50
2019-02-20T15:56:30.689Z,53.30
2019-02-20T16:01:26.501Z,53.90
2019-02-20T16:06:22.306Z,54.60
2019-02-20T16:11:18.137Z,55.80
2019-02-20T16:16:14.318Z,57.20
2019-02-20T16:21:10.152Z,58.60
2019-02-20T16:26:06.385Z,60.50
2019-02-20T16:31:02.720Z,62.80
2019-02-20T16:35:58.593Z,65.50
2019-02-20T16:40:54.397Z,67.70
2019-02-20T16:45:50.459Z,69.80
2019-02-20T16:50:46.193Z,72.10
2019-02-20T16:55:45.706Z,73.10
2019-02-20T17:00:41.937Z,74.80
2019-02-20T17:05:37.827Z,76.50
2019-02-20T17:10:34.032Z,78.00
2019-02-20T17:15:30.179Z,81.80
2019-02-20T17:20:27.747Z,83.50
2019-02-20T17:25:23.720Z,84.20
2019-02-20T17:30:19.657Z,85.00
2019-02-20T17:35:18.678Z,86.40
2019-02-20T17:40:15.367Z,87.50
2019-02-20T17:45:13.005Z,88.00
2019-02-20T17:50:12.294Z,89.00
2019-02-20T17:55:08.597Z,90.30
2019-02-20T18:00:05.152Z,90.80
2019-02-20T18:05:02.981Z,91.20
2019-02-20T18:09:59.231Z,91.40
2019-02-20T18:14:55.375Z,91.60
2019-02-20T18:19:51.227Z,92.20
2019-02-20T18:24:51.973Z,92.60
2019-02-20T18:29:48.003Z,92.90
2019-02-20T18:34:43.709Z,93.10
2019-02-20T18:39:39.580Z,93.10
2019-02-20T18:44:35.396Z,93.40
2019-02-20T18:49:31.168Z,93.40
2019-02-20T18:54:26.947Z,93.70
2019-02-20T18:59:22.958Z,93.70
2019-02-20T19:04:18.783Z,93.80
2019-02-20T19:09:25.026Z,94.50
2019-02-20T19:14:38.411Z,95.10
2019-02-20T19:19:49.343Z,95.30
2019-02-20T19:25:36.317Z,95.70
2019-02-20T19:31:34.210Z,95.60
2019-02-20T19:37:00.904Z,96.30
2019-02-20T19:42:21.243Z,96.80
2019-02-20T19:47:32.523Z,96.90
2019-02-20T19:52:57.203Z,97.40
2019-02-20T19:58:24.520Z,97.60
2019-02-20T20:03:42.859Z,98.00
2019-02-20T20:08:44.809Z,98.20
2019-02-20T20:14:11.568Z,98.10
2019-02-20T20:19:54.090Z,98.00
2019-02-20T20:25:26.916Z,98.10
2019-02-20T20:31:14.416Z,98.40
2019-02-20T20:36:54.429Z,98.60
2019-02-20T20:42:23.435Z,98.90
2019-02-20T20:47:41.775Z,98.80
2019-02-20T20:53:21.462Z,98.80
2019-02-20T20:58:48.895Z,99.00
2019-02-20T21:04:26.000Z,99.10
2019-02-20T21:09:42.682Z,99.50
2019-02-20T21:14:56.937Z,99.60
2019-02-20T21:20:33.811Z,99.70
2019-02-20T21:26:11.675Z,99.70
2019-02-20T21:31:53.588Z,99.90
2019-02-20T21:37:24.978Z,99.90
2019-02-20T21:42:48.133Z,99.90
2019-02-20T21:48:15.641Z,99.90
2019-02-20T21:53:52.452Z,99.90
2019-02-20T21:59:22.701Z,99.90
2019-02-20T22:04:34.073Z,99.90
2019-02-20T22:10:01.350Z,99.90
2019-02-20T22:15:28.588Z,99.90
2019-02-20T22:20:57.921Z,99.90
2019-02-20T22:26:49.989Z,99.90
2019-02-20T22:32:31.335Z,99.90
2019-02-20T22:38:21.430Z,99.90
2019-02-20T22:44:30.267Z,99.90
2019-02-20T22:50:08.608Z,99.90
2019-02-20T22:55:29.283Z,99.90
2019-02-20T23:01:20.983Z,99.90
2019-02-20T23:06:58.080Z,99.90
2019-02-20T23:12:26.557Z,99.90
2019-02-20T23:17:27.146Z,99.90
2019-02-20T23:22:23.881Z,99.90
2019-02-20T23:27:33.614Z,99.90
2019-02-20T23:32:32.168Z,99.90
2019-02-20T23:37:34.292Z,99.90
2019-02-20T23:42:30.676Z,99.90
2019-02-20T23:47:26.406Z,99.90
2019-02-20T23:52:22.174Z,99.90
2019-02-20T23:57:17.863Z,99.90
